createdAt,value
2018-09-14T00:00:57.614Z,5.87
2018-09-14T00:03:26.882Z,5.67
2018-09-14T00:05:56.175Z,6.67
2018-09-14T00:08:25.455Z,6.73
2018-09-14T00:10:54.751Z,6.50
2018-09-14T00:13:24.051Z,6.13
2018-09-14T00:15:53.416Z,6.20
2018-09-14T00:18:22.650Z,5.83
2018-09-14T00:20:51.967Z,6.13
2018-09-14T00:23:21.319Z,6.50
2018-09-14T00:25:50.727Z,6.27
2018-09-14T00:28:20.043Z,6.23
2018-09-14T00:30:49.439Z,6.20
2018-09-14T00:33:18.815Z,6.13
2018-09-14T00:35:48.222Z,5.57
2018-09-14T00:38:17.527Z,5.90
2018-09-14T00:40:46.908Z,5.50
2018-09-14T00:43:16.423Z,6.30
2018-09-14T00:45:45.767Z,7.30
2018-09-14T00:48:15.022Z,5.97
2018-09-14T00:50:44.254Z,5.93
2018-09-14T00:53:13.624Z,5.80
2018-09-14T00:55:42.949Z,6.80
2018-09-14T00:58:12.244Z,6.40
2018-09-14T01:00:41.537Z,5.87
2018-09-14T01:03:10.790Z,5.40
2018-09-14T01:05:40.075Z,7.53
2018-09-14T01:08:09.403Z,6.30
2018-09-14T01:10:38.731Z,6.47
2018-09-14T01:13:07.984Z,5.33
2018-09-14T01:15:37.233Z,6.47
2018-09-14T01:18:06.832Z,6.30
2018-09-14T01:20:36.065Z,6.10
2018-09-14T01:23:05.378Z,7.97
2018-09-14T01:25:34.677Z,8.43
2018-09-14T01:28:03.994Z,7.13
2018-09-14T01:30:33.356Z,6.03
2018-09-14T01:33:02.651Z,5.77
2018-09-14T01:35:37.103Z,5.97
2018-09-14T01:38:06.412Z,7.10
2018-09-14T01:40:35.695Z,7.13
2018-09-14T01:43:04.974Z,5.83
2018-09-14T01:45:34.227Z,7.73
2018-09-14T01:48:03.563Z,6.30
2018-09-14T01:50:32.883Z,5.90
2018-09-14T01:53:02.281Z,6.97
2018-09-14T01:55:31.546Z,6.27
2018-09-14T01:58:00.818Z,5.80
2018-09-14T02:00:30.154Z,6.53
2018-09-14T02:02:59.450Z,5.63
2018-09-14T02:05:28.710Z,6.27
2018-09-14T02:07:58.030Z,7.10
2018-09-14T02:10:27.279Z,6.47
2018-09-14T02:12:56.576Z,6.40
2018-09-14T02:15:25.799Z,6.17
2018-09-14T02:17:55.099Z,6.87
2018-09-14T02:20:24.373Z,5.67
2018-09-14T02:22:53.653Z,6.33
2018-09-14T02:25:22.939Z,5.60
2018-09-14T02:27:52.254Z,5.73
2018-09-14T02:30:21.552Z,5.20
2018-09-14T02:32:50.840Z,5.27
2018-09-14T02:35:20.051Z,5.07
2018-09-14T02:37:49.391Z,5.27
2018-09-14T02:40:18.666Z,4.70
2018-09-14T02:42:47.965Z,4.90
2018-09-14T02:45:17.251Z,4.93
2018-09-14T02:47:46.547Z,5.13
2018-09-14T02:50:15.731Z,5.23
2018-09-14T02:52:45.122Z,6.40
2018-09-14T02:55:14.535Z,5.73
2018-09-14T02:57:43.858Z,5.33
2018-09-14T03:00:13.307Z,6.03
2018-09-14T03:02:42.552Z,5.73
2018-09-14T03:05:11.884Z,5.13
2018-09-14T03:07:41.218Z,5.03
2018-09-14T03:10:10.497Z,4.67
2018-09-14T03:12:39.775Z,4.10
2018-09-14T03:15:09.143Z,5.37
2018-09-14T03:17:38.492Z,5.20
2018-09-14T03:20:07.782Z,5.23
2018-09-14T03:22:37.045Z,5.33
2018-09-14T03:25:06.403Z,4.73
2018-09-14T03:27:35.769Z,4.67
2018-09-14T03:30:05.236Z,5.23
2018-09-14T03:32:34.463Z,5.17
2018-09-14T03:35:03.786Z,5.07
2018-09-14T03:37:33.060Z,5.03
2018-09-14T03:40:02.366Z,4.50
2018-09-14T03:42:31.690Z,4.53
2018-09-14T03:45:01.046Z,4.33
2018-09-14T03:47:30.317Z,5.27
2018-09-14T03:49:59.644Z,5.60
2018-09-14T03:52:29.003Z,5.37
2018-09-14T03:54:58.333Z,5.30
2018-09-14T03:57:27.644Z,4.87
2018-09-14T03:59:56.926Z,5.93
2018-09-14T04:02:26.196Z,6.47
2018-09-14T04:04:56.105Z,5.87
2018-09-14T04:07:25.363Z,6.37
2018-09-14T04:09:54.651Z,6.70
2018-09-14T04:12:23.974Z,6.70
2018-09-14T04:14:53.291Z,5.77
2018-09-14T04:17:22.576Z,6.93
2018-09-14T04:19:51.863Z,5.50
2018-09-14T04:22:21.128Z,5.23
2018-09-14T04:24:50.465Z,6.63
2018-09-14T04:27:19.760Z,6.10
2018-09-14T04:29:49.251Z,5.80
2018-09-14T04:32:18.511Z,6.77
2018-09-14T04:34:47.711Z,6.33
2018-09-14T04:37:16.983Z,7.53
2018-09-14T04:39:46.322Z,6.70
2018-09-14T04:42:15.571Z,6.80
2018-09-14T04:44:44.954Z,6.70
2018-09-14T04:47:14.209Z,6.03
2018-09-14T04:49:43.495Z,6.90
2018-09-14T04:52:12.884Z,6.27
2018-09-14T04:54:42.203Z,5.63
2018-09-14T04:57:11.452Z,5.83
2018-09-14T04:59:40.767Z,6.47
2018-09-14T05:02:10.106Z,6.43
2018-09-14T05:04:39.455Z,7.30
2018-09-14T05:07:08.749Z,7.10
2018-09-14T05:09:37.958Z,7.10
2018-09-14T05:12:07.294Z,5.87
2018-09-14T05:14:36.599Z,6.10
2018-09-14T05:17:06.015Z,6.67
2018-09-14T05:19:35.208Z,7.50
2018-09-14T05:22:04.508Z,8.47
2018-09-14T05:24:33.825Z,8.00
2018-09-14T05:27:03.173Z,7.53
2018-09-14T05:29:32.435Z,8.10
2018-09-14T05:32:01.708Z,7.83
2018-09-14T05:34:30.963Z,7.60
2018-09-14T05:37:00.212Z,6.67
2018-09-14T05:39:29.499Z,6.90
2018-09-14T05:41:58.799Z,7.93
2018-09-14T05:44:28.113Z,7.03
2018-09-14T05:46:57.435Z,7.53
2018-09-14T05:49:26.794Z,7.50
2018-09-14T05:51:56.091Z,7.33
2018-09-14T05:54:25.462Z,8.20
2018-09-14T05:56:54.694Z,6.90
2018-09-14T05:59:23.997Z,8.20
2018-09-14T06:01:53.254Z,9.00
2018-09-14T06:04:22.459Z,7.80
2018-09-14T06:06:51.870Z,6.90
2018-09-14T06:09:21.158Z,7.77
2018-09-14T06:11:50.410Z,6.80
2018-09-14T06:14:19.603Z,7.50
2018-09-14T06:16:48.929Z,7.60
2018-09-14T06:19:18.209Z,7.50
2018-09-14T06:21:47.522Z,7.30
2018-09-14T06:24:17.012Z,6.83
2018-09-14T06:26:46.287Z,6.73
2018-09-14T06:29:15.703Z,7.33
2018-09-14T06:31:45.004Z,9.00
2018-09-14T06:34:14.327Z,8.07
2018-09-14T06:36:43.609Z,6.83
2018-09-14T06:39:13.457Z,5.97
2018-09-14T06:41:42.756Z,6.83
2018-09-14T06:44:12.091Z,8.67
2018-09-14T06:46:41.402Z,8.47
2018-09-14T06:49:10.707Z,7.87
2018-09-14T06:51:40.122Z,7.57
2018-09-14T06:54:10.067Z,7.47
2018-09-14T06:56:39.359Z,7.63
2018-09-14T06:59:08.677Z,7.57
2018-09-14T07:01:37.994Z,7.60
2018-09-14T07:04:07.263Z,10.73
2018-09-14T07:06:36.584Z,10.70
2018-09-14T07:09:07.631Z,8.43
2018-09-14T07:11:36.956Z,10.20
2018-09-14T07:14:06.574Z,10.73
2018-09-14T07:16:35.892Z,10.23
2018-09-14T07:19:05.216Z,11.37
2018-09-14T07:21:34.519Z,10.37
2018-09-14T07:24:03.850Z,12.13
2018-09-14T07:26:33.093Z,10.17
2018-09-14T07:29:02.484Z,11.00
2018-09-14T07:31:31.693Z,9.53
2018-09-14T07:34:00.966Z,10.73
2018-09-14T07:36:30.283Z,11.87
2018-09-14T07:38:59.588Z,9.30
2018-09-14T07:41:28.859Z,10.93
2018-09-14T07:43:58.203Z,9.37
2018-09-14T07:46:27.523Z,10.60
2018-09-14T07:48:56.874Z,9.30
2018-09-14T07:51:26.161Z,9.73
2018-09-14T07:53:55.542Z,8.97
2018-09-14T07:56:25.128Z,7.47
2018-09-14T07:58:55.177Z,9.30
2018-09-14T08:01:24.427Z,9.10
2018-09-14T08:03:53.714Z,6.03
2018-09-14T08:06:22.962Z,9.33
2018-09-14T08:08:52.274Z,7.63
2018-09-14T08:11:21.550Z,7.57
2018-09-14T08:13:51.062Z,8.33
2018-09-14T08:16:20.317Z,7.50
2018-09-14T08:18:49.899Z,8.80
2018-09-14T08:21:19.256Z,9.07
2018-09-14T08:23:48.548Z,7.67
2018-09-14T08:26:17.854Z,7.10
2018-09-14T08:28:47.073Z,8.23
2018-09-14T08:31:16.379Z,7.20
2018-09-14T08:33:45.631Z,7.77
2018-09-14T08:36:14.990Z,7.37
2018-09-14T08:38:44.271Z,6.00
2018-09-14T08:41:13.570Z,7.03
2018-09-14T08:43:42.860Z,6.27
2018-09-14T08:46:12.154Z,6.40
2018-09-14T08:48:41.439Z,7.03
2018-09-14T08:51:10.643Z,5.30
2018-09-14T08:53:40.040Z,6.00
2018-09-14T08:56:09.411Z,5.30
2018-09-14T08:58:38.716Z,5.97
2018-09-14T09:01:08.283Z,5.70
2018-09-14T09:03:37.558Z,6.30
2018-09-14T09:06:06.870Z,5.40
2018-09-14T09:08:36.176Z,5.57
2018-09-14T09:11:05.471Z,5.87
2018-09-14T09:13:34.751Z,5.20
2018-09-14T09:16:04.066Z,4.60
2018-09-14T09:18:33.325Z,4.80
2018-09-14T09:21:02.612Z,4.97
2018-09-14T09:23:31.899Z,5.90
2018-09-14T09:26:01.187Z,4.80
2018-09-14T09:28:30.474Z,4.53
2018-09-14T09:30:59.851Z,5.40
2018-09-14T09:33:29.127Z,4.80
2018-09-14T09:35:58.420Z,4.80
2018-09-14T09:38:27.716Z,4.70
2018-09-14T09:40:56.982Z,4.60
2018-09-14T09:43:26.366Z,4.83
2018-09-14T09:45:55.474Z,4.00
2018-09-14T09:48:24.751Z,4.07
2018-09-14T09:50:54.053Z,4.00
2018-09-14T09:53:23.319Z,3.33
2018-09-14T09:55:52.675Z,4.33
2018-09-14T09:58:21.958Z,3.97
2018-09-14T10:00:56.403Z,4.40
2018-09-14T10:04:28.416Z,3.70
2018-09-14T10:06:57.839Z,3.57
2018-09-14T10:09:27.146Z,4.03
2018-09-14T10:11:56.471Z,2.83
2018-09-14T10:14:25.769Z,2.60
2018-09-14T10:16:55.109Z,2.20
2018-09-14T10:19:24.463Z,2.30
2018-09-14T10:21:53.666Z,2.20
2018-09-14T10:24:22.987Z,2.60
2018-09-14T10:26:52.356Z,2.70
2018-09-14T10:29:21.663Z,5.67
2018-09-14T10:31:50.978Z,3.67
2018-09-14T10:34:20.271Z,2.63
2018-09-14T10:36:49.541Z,3.70
2018-09-14T10:39:18.868Z,3.37
2018-09-14T10:41:48.174Z,3.30
2018-09-14T10:44:17.442Z,2.27
2018-09-14T10:46:46.740Z,3.87
2018-09-14T10:49:16.027Z,3.20
2018-09-14T10:51:45.323Z,5.00
2018-09-14T10:54:14.773Z,3.60
2018-09-14T10:56:44.174Z,3.07
2018-09-14T10:59:13.452Z,3.77
2018-09-14T11:01:42.616Z,3.10
2018-09-14T11:04:11.871Z,2.80
2018-09-14T11:06:41.253Z,2.80
2018-09-14T11:09:12.670Z,2.93
2018-09-14T11:11:42.007Z,2.70
2018-09-14T11:14:11.822Z,2.87
2018-09-14T11:16:41.195Z,2.97
2018-09-14T11:19:10.574Z,3.50
2018-09-14T11:21:39.913Z,3.33
2018-09-14T11:24:09.193Z,3.53
2018-09-14T11:26:38.522Z,3.57
2018-09-14T11:29:07.807Z,3.43
2018-09-14T11:31:37.030Z,3.70
2018-09-14T11:34:06.455Z,5.13
2018-09-14T11:36:35.766Z,2.60
2018-09-14T11:39:07.399Z,3.10
2018-09-14T11:41:36.671Z,3.37
2018-09-14T11:44:05.980Z,4.93
2018-09-14T11:46:35.270Z,14.17
2018-09-14T11:49:04.553Z,3.83
2018-09-14T11:51:33.859Z,2.80
2018-09-14T11:54:03.309Z,3.47
2018-09-14T11:56:32.598Z,2.80
2018-09-14T11:59:01.973Z,2.70
2018-09-14T12:01:31.433Z,2.50
2018-09-14T12:04:01.030Z,3.07
2018-09-14T12:06:30.690Z,3.00
2018-09-14T12:08:59.951Z,2.57
2018-09-14T12:11:29.172Z,2.13
2018-09-14T12:13:58.516Z,3.87
2018-09-14T12:16:27.785Z,5.40
2018-09-14T12:18:57.059Z,3.40
2018-09-14T12:21:26.415Z,3.40
2018-09-14T12:23:55.634Z,2.13
2018-09-14T12:26:25.118Z,1.97
2018-09-14T12:28:54.409Z,1.70
2018-09-14T12:31:23.691Z,2.73
2018-09-14T12:33:52.967Z,1.93
2018-09-14T12:36:22.259Z,2.20
2018-09-14T12:38:51.572Z,2.30
2018-09-14T12:41:20.885Z,2.07
2018-09-14T12:43:50.230Z,2.40
2018-09-14T12:46:19.542Z,2.30
2018-09-14T12:48:48.974Z,2.47
2018-09-14T12:51:18.338Z,2.30
2018-09-14T12:53:47.688Z,2.53
2018-09-14T12:56:17.021Z,2.20
2018-09-14T12:58:46.259Z,2.13
2018-09-14T13:01:15.542Z,1.67
2018-09-14T13:03:44.867Z,1.90
2018-09-14T13:06:14.226Z,2.93
2018-09-14T13:08:43.582Z,3.13
2018-09-14T13:11:12.894Z,1.83
2018-09-14T13:13:42.159Z,2.17
2018-09-14T13:16:11.402Z,1.97
2018-09-14T13:18:40.699Z,1.70
2018-09-14T13:21:10.175Z,1.70
2018-09-14T13:23:39.494Z,1.70
2018-09-14T13:26:08.798Z,1.70
2018-09-14T13:28:38.043Z,2.10
2018-09-14T13:31:07.339Z,1.90
2018-09-14T13:33:36.623Z,1.47
2018-09-14T13:36:05.927Z,2.00
2018-09-14T13:38:35.179Z,1.90
2018-09-14T13:41:04.509Z,1.43
2018-09-14T13:43:33.751Z,1.50
2018-09-14T13:46:03.011Z,1.70
2018-09-14T13:48:32.359Z,1.83
2018-09-14T13:51:01.689Z,1.50
2018-09-14T13:53:31.003Z,1.70
2018-09-14T13:56:00.309Z,1.33
2018-09-14T13:58:29.568Z,2.10
2018-09-14T14:00:58.813Z,1.90
2018-09-14T14:03:28.076Z,1.60
2018-09-14T14:05:57.438Z,1.50
2018-09-14T14:08:26.759Z,1.47
2018-09-14T14:10:56.094Z,1.20
2018-09-14T14:13:25.384Z,1.70
2018-09-14T14:15:56.437Z,1.50
2018-09-14T14:18:25.748Z,1.67
2018-09-14T14:20:55.243Z,1.47
2018-09-14T14:23:24.595Z,1.43
2018-09-14T14:25:53.874Z,1.77
2018-09-14T14:28:23.185Z,1.50
2018-09-14T14:30:52.455Z,1.40
2018-09-14T14:33:21.766Z,2.13
2018-09-14T14:35:50.965Z,2.13
2018-09-14T14:38:20.227Z,1.97
2018-09-14T14:40:49.513Z,2.27
2018-09-14T14:43:18.831Z,1.70
2018-09-14T14:45:48.216Z,1.83
2018-09-14T14:48:17.571Z,2.43
2018-09-14T14:50:46.847Z,2.10
2018-09-14T14:53:16.168Z,1.47
2018-09-14T14:55:45.492Z,1.33
2018-09-14T14:58:14.771Z,1.97
2018-09-14T15:00:44.039Z,1.40
2018-09-14T15:03:13.369Z,1.80
2018-09-14T15:05:42.674Z,1.50
2018-09-14T15:08:11.954Z,1.80
2018-09-14T15:10:41.299Z,1.73
2018-09-14T15:13:10.654Z,1.70
2018-09-14T15:15:39.916Z,1.83
2018-09-14T15:18:09.194Z,1.63
2018-09-14T15:20:38.373Z,1.50
2018-09-14T15:23:07.638Z,1.90
2018-09-14T15:25:36.878Z,2.20
2018-09-14T15:28:06.494Z,2.03
2018-09-14T15:30:35.758Z,1.87
2018-09-14T15:33:05.145Z,1.90
2018-09-14T15:35:34.705Z,1.60
2018-09-14T15:38:04.114Z,1.90
2018-09-14T15:40:33.355Z,1.70
2018-09-14T15:43:02.662Z,1.97
2018-09-14T15:45:31.903Z,2.33
2018-09-14T15:48:01.155Z,2.03
2018-09-14T15:50:30.472Z,1.87
2018-09-14T15:52:59.304Z,2.10
2018-09-14T15:55:28.562Z,2.17
2018-09-14T15:57:57.899Z,2.20
2018-09-14T16:00:27.148Z,1.70
2018-09-14T16:02:56.447Z,1.90
2018-09-14T16:05:25.677Z,1.73
2018-09-14T16:07:54.970Z,2.20
2018-09-14T16:10:24.306Z,1.80
2018-09-14T16:12:53.696Z,2.30
2018-09-14T16:15:23.095Z,1.87
2018-09-14T16:17:52.635Z,2.20
2018-09-14T16:20:21.947Z,2.40
2018-09-14T16:22:51.269Z,2.70
2018-09-14T16:25:20.581Z,1.80
2018-09-14T16:27:49.880Z,2.13
2018-09-14T16:30:19.181Z,2.23
2018-09-14T16:32:48.489Z,1.80
2018-09-14T16:35:17.751Z,2.23
2018-09-14T16:37:47.000Z,1.67
2018-09-14T16:40:22.567Z,1.90
2018-09-14T16:42:52.066Z,1.83
2018-09-14T16:45:21.390Z,1.70
2018-09-14T16:47:50.623Z,1.73
2018-09-14T16:50:19.893Z,1.97
2018-09-14T16:52:49.194Z,2.17
2018-09-14T16:55:18.477Z,1.47
2018-09-14T16:57:47.722Z,1.90
2018-09-14T17:00:17.113Z,2.27
2018-09-14T17:02:46.564Z,2.03
2018-09-14T17:05:15.832Z,1.60
2018-09-14T17:07:45.154Z,2.20
2018-09-14T17:10:14.380Z,2.07
2018-09-14T17:12:43.611Z,1.63
2018-09-14T17:15:12.919Z,1.73
2018-09-14T17:17:42.266Z,1.90
2018-09-14T17:20:11.558Z,1.77
2018-09-14T17:22:40.819Z,2.40
2018-09-14T17:25:10.123Z,1.70
2018-09-14T17:27:39.478Z,1.40
2018-09-14T17:30:08.797Z,1.80
2018-09-14T17:32:38.088Z,1.70
2018-09-14T17:35:07.403Z,2.13
2018-09-14T17:37:36.651Z,1.83
2018-09-14T17:40:05.979Z,1.63
2018-09-14T17:42:35.247Z,2.00
2018-09-14T17:45:04.610Z,1.50
2018-09-14T17:47:34.031Z,2.40
2018-09-14T17:50:03.324Z,2.30
2018-09-14T17:52:32.571Z,1.77
2018-09-14T17:55:01.831Z,1.83
2018-09-14T17:57:31.206Z,2.00
2018-09-14T18:00:00.487Z,1.90
2018-09-14T18:02:29.768Z,2.13
2018-09-14T18:04:59.035Z,1.97
2018-09-14T18:07:28.354Z,2.70
2018-09-14T18:09:57.665Z,1.80
2018-09-14T18:12:26.971Z,2.60
2018-09-14T18:14:56.234Z,2.30
2018-09-14T18:17:25.537Z,2.47
2018-09-14T18:19:54.840Z,1.60
2018-09-14T18:22:24.235Z,2.13
2018-09-14T18:24:53.553Z,2.43
2018-09-14T18:27:22.907Z,2.55
2018-09-14T18:29:52.162Z,2.77
2018-09-14T18:32:21.452Z,3.08
2018-09-14T18:34:50.799Z,2.37
2018-09-14T18:37:20.095Z,2.17
2018-09-14T18:39:49.410Z,3.20
2018-09-14T18:42:18.724Z,2.60
2018-09-14T18:44:48.003Z,2.40
2018-09-14T18:47:17.336Z,2.30
2018-09-14T18:49:46.620Z,2.60
2018-09-14T18:52:15.928Z,2.70
2018-09-14T18:54:45.237Z,2.67
2018-09-14T18:57:14.504Z,2.47
2018-09-14T18:59:43.827Z,2.87
2018-09-14T19:02:13.278Z,2.07
2018-09-14T19:04:42.544Z,2.90
2018-09-14T19:07:11.830Z,2.80
2018-09-14T19:09:41.154Z,2.80
2018-09-14T19:12:10.510Z,2.60
2018-09-14T19:14:39.969Z,3.03
2018-09-14T19:17:09.451Z,2.40
2018-09-14T19:19:38.814Z,2.60
2018-09-14T19:22:08.186Z,3.33
2018-09-14T19:24:37.442Z,3.07
2018-09-14T19:27:06.810Z,2.60
2018-09-14T19:29:36.029Z,3.10
2018-09-14T19:32:05.491Z,3.10
2018-09-14T19:34:34.799Z,3.17
2018-09-14T19:37:04.026Z,3.20
2018-09-14T19:39:33.298Z,2.97
2018-09-14T19:42:02.526Z,2.60
2018-09-14T19:44:31.850Z,2.70
2018-09-14T19:47:02.216Z,2.53
2018-09-14T19:49:31.546Z,2.50
2018-09-14T19:52:00.973Z,2.77
2018-09-14T19:54:30.271Z,2.63
2018-09-14T19:56:59.574Z,2.60
2018-09-14T19:59:28.899Z,2.57
2018-09-14T20:01:58.171Z,2.77
2018-09-14T20:04:27.477Z,2.30
2018-09-14T20:06:56.791Z,3.47
2018-09-14T20:09:26.127Z,3.40
2018-09-14T20:11:55.359Z,2.73
2018-09-14T20:14:24.646Z,3.00
2018-09-14T20:16:53.937Z,3.03
2018-09-14T20:19:23.365Z,25.03
2018-09-14T20:21:52.802Z,21.40
2018-09-14T20:24:22.095Z,8.67
2018-09-14T20:26:51.433Z,5.33
2018-09-14T20:29:20.728Z,3.47
2018-09-14T20:31:49.959Z,3.27
2018-09-14T20:34:19.283Z,2.47
2018-09-14T20:36:48.551Z,3.27
2018-09-14T20:39:17.891Z,3.03
2018-09-14T20:41:47.138Z,3.33
2018-09-14T20:44:16.598Z,3.17
2018-09-14T20:46:45.922Z,3.60
2018-09-14T20:49:15.194Z,3.03
2018-09-14T20:51:44.592Z,3.37
2018-09-14T20:54:13.846Z,3.27
2018-09-14T20:56:43.025Z,3.30
2018-09-14T20:59:12.342Z,3.07
2018-09-14T21:01:41.642Z,3.07
2018-09-14T21:04:10.956Z,3.53
2018-09-14T21:06:40.257Z,3.67
2018-09-14T21:09:10.342Z,3.30
2018-09-14T21:11:40.020Z,2.60
2018-09-14T21:14:09.447Z,3.27
2018-09-14T21:16:38.750Z,3.47
2018-09-14T21:19:08.091Z,4.00
2018-09-14T21:21:37.601Z,3.70
2018-09-14T21:24:06.929Z,3.00
2018-09-14T21:26:36.166Z,3.50
2018-09-14T21:29:05.553Z,3.43
2018-09-14T21:31:34.843Z,3.17
2018-09-14T21:34:04.172Z,2.90
2018-09-14T21:36:33.486Z,2.90
2018-09-14T21:39:02.849Z,3.37
2018-09-14T21:41:32.175Z,3.37
2018-09-14T21:44:01.522Z,3.30
2018-09-14T21:46:30.818Z,3.33
2018-09-14T21:49:00.076Z,3.60
2018-09-14T21:51:29.367Z,2.80
2018-09-14T21:53:58.640Z,2.80
2018-09-14T21:56:27.951Z,2.97
2018-09-14T21:58:57.316Z,3.33
2018-09-14T22:01:28.482Z,3.30
2018-09-14T22:03:58.927Z,3.97
2018-09-14T22:06:28.320Z,3.60
2018-09-14T22:08:57.905Z,3.43
2018-09-14T22:11:27.223Z,3.60
2018-09-14T22:13:56.503Z,3.10
2018-09-14T22:16:25.798Z,3.00
2018-09-14T22:18:55.081Z,3.03
2018-09-14T22:21:24.518Z,3.90
2018-09-14T22:23:53.988Z,3.50
2018-09-14T22:26:23.301Z,3.70
2018-09-14T22:28:52.562Z,3.40
2018-09-14T22:31:21.839Z,2.90
2018-09-14T22:33:51.120Z,3.07
2018-09-14T22:36:20.457Z,3.13
2018-09-14T22:38:49.714Z,3.23
2018-09-14T22:41:19.026Z,3.03
2018-09-14T22:43:48.419Z,3.20
2018-09-14T22:46:17.813Z,3.63
2018-09-14T22:48:47.306Z,3.57
2018-09-14T22:51:16.611Z,3.13
2018-09-14T22:53:45.987Z,3.07
2018-09-14T22:56:15.285Z,3.43
2018-09-14T22:58:44.596Z,3.77
2018-09-14T23:01:18.214Z,3.63
2018-09-14T23:03:48.638Z,3.40
2018-09-14T23:06:17.879Z,3.77
2018-09-14T23:08:47.217Z,3.40
2018-09-14T23:11:16.539Z,3.10
2018-09-14T23:13:45.759Z,3.20
2018-09-14T23:16:15.091Z,3.27
2018-09-14T23:18:44.411Z,3.30
2018-09-14T23:21:13.746Z,3.10
2018-09-14T23:23:43.131Z,3.07
2018-09-14T23:26:22.022Z,3.43
2018-09-14T23:28:51.276Z,3.27
2018-09-14T23:31:20.654Z,2.90
2018-09-14T23:33:49.949Z,2.90
2018-09-14T23:36:19.466Z,3.50
2018-09-14T23:38:48.786Z,3.30
2018-09-14T23:41:18.053Z,3.90
2018-09-14T23:43:47.689Z,4.20
2018-09-14T23:46:16.950Z,3.00
2018-09-14T23:48:46.258Z,3.33
2018-09-14T23:51:15.540Z,3.60
2018-09-14T23:53:44.834Z,3.33
2018-09-14T23:56:14.199Z,2.87
2018-09-14T23:58:43.447Z,3.37
